Time;durP1;ratioP1;P1;durP2;ratioP2;P2;SDS_P1;SDS_P2;PMS_P1;PMS_P2;Temp;Humidity;BMP_temperature;BMP_pressure;BME280_temperature;BME280_humidity;BME280_pressure;Samples;Min_cycle;Max_cycle;Signal;HPM_P1;HPM_P2
2022/05/30 00:00:20;;;;;;;10.38;3.13;;;;;;;;;;5493098;22;20944;-73
2022/05/30 00:05:50;;;;;;;9.00;3.33;;;8.60;99.90;;;;;;4984283;23;20486;-73
2022/05/30 00:08:17;;;;;;;10.10;3.38;;;8.20;99.90;;;;;;4939903;28;20441;-73
2022/05/30 00:10:44;;;;;;;11.07;3.75;;;8.60;99.90;;;;;;4956889;28;20476;-72
2022/05/30 00:13:12;;;;;;;10.73;3.38;;;;;;;;;;4944962;28;20430;-72
2022/05/30 00:15:38;;;;;;;7.13;3.40;;;;;;;;;;4951411;28;20438;-72
2022/05/30 00:18:04;;;;;;;10.65;3.40;;;;;;;;;;4965917;28;20426;-75
2022/05/30 00:20:30;;;;;;;10.20;3.45;;;;;;;;;;4937683;28;21960;-75
2022/05/30 00:22:56;;;;;;;9.75;3.67;;;;;;;;;;4962883;28;20438;-75
2022/05/30 00:25:22;;;;;;;10.18;3.72;;;;;;;;;;4931862;28;20765;-75
2022/05/30 00:27:49;;;;;;;8.80;3.50;;;;;;;;;;4953269;28;20818;-75
2022/05/30 00:30:15;;;;;;;9.30;3.30;;;;;;;;;;4948069;28;20443;-75
2022/05/30 00:32:41;;;;;;;7.32;3.33;;;;;;;;;;4956406;28;20503;-74
2022/05/30 00:35:08;;;;;;;8.65;3.55;;;;;;;;;;4952192;28;20468;-74
2022/05/30 00:37:34;;;;;;;12.00;3.83;;;;;;;;;;4944231;28;20926;-74
2022/05/30 00:40:01;;;;;;;8.95;3.60;;;;;;;;;;4971445;28;20491;-74
2022/05/30 00:42:27;;;;;;;9.98;3.85;;;;;;;;;;4937246;28;20463;-74
2022/05/30 00:44:54;;;;;;;7.47;3.35;;;;;;;;;;4958039;28;20430;-74
2022/05/30 00:47:21;;;;;;;10.68;3.35;;;8.30;99.90;;;;;;4966685;28;20823;-74
2022/05/30 00:49:48;;;;;;;8.90;3.23;;;;;;;;;;4958265;28;20444;-74
2022/05/30 00:52:22;;;;;;;7.82;2.58;;;7.80;99.90;;;;;;4937524;28;20932;-74
2022/05/30 00:54:54;;;;;;;7.90;2.90;;;8.20;99.90;;;;;;4956875;28;20899;-74
2022/05/30 00:57:21;;;;;;;7.60;3.03;;;;;;;;;;4966350;28;20427;-74
2022/05/30 00:59:53;;;;;;;8.27;2.60;;;;;;;;;;4977643;28;20420;-75
2022/05/30 01:02:21;;;;;;;6.67;2.60;;;7.60;99.90;;;;;;4960723;28;20526;-74
2022/05/30 01:07:33;;;;;;;5.82;2.80;;;;;;;;;;4953327;28;20990;-74
2022/05/30 01:10:01;;;;;;;5.25;2.28;;;7.90;99.90;;;;;;4959293;28;20933;-75
2022/05/30 01:12:55;;;;;;;8.07;2.63;;;8.00;99.90;;;;;;4935551;28;20440;-75
2022/05/30 01:15:26;;;;;;;6.30;2.30;;;7.90;99.90;;;;;;4952401;28;20436;-75
2022/05/30 01:17:59;;;;;;;6.10;2.13;;;7.80;99.90;;;;;;4966650;28;20438;-75
2022/05/30 01:20:43;;;;;;;6.28;2.40;;;8.00;99.90;;;;;;4954413;28;21039;-75
2022/05/30 01:23:15;;;;;;;9.30;2.50;;;;;;;;;;4950558;28;20439;-75
2022/05/30 01:26:03;;;;;;;5.22;1.90;;;7.80;99.90;;;;;;4959413;28;20428;-75
2022/05/30 01:28:48;;;;;;;6.40;2.40;;;;;;;;;;4956078;28;20438;-75
2022/05/30 01:31:15;;;;;;;6.43;2.45;;;;;;;;;;4954031;28;20518;-76
2022/05/30 01:33:41;;;;;;;5.43;2.38;;;;;;;;;;4938239;28;20436;-76
2022/05/30 01:36:07;;;;;;;5.23;2.00;;;8.20;99.90;;;;;;4950049;28;20426;-76
2022/05/30 01:38:33;;;;;;;5.28;1.90;;;;;;;;;;4932149;28;20594;-76
2022/05/30 01:41:00;;;;;;;4.78;2.00;;;;;;;;;;4942923;28;20428;-76
2022/05/30 01:43:27;;;;;;;5.10;2.10;;;;;;;;;;4940549;28;20778;-76
2022/05/30 01:45:53;;;;;;;4.43;2.40;;;;;;;;;;4953175;28;20434;-76
2022/05/30 01:48:19;;;;;;;5.25;1.92;;;;;;;;;;4938836;28;20430;-76
2022/05/30 01:50:47;;;;;;;6.30;2.10;;;;;;;;;;4950738;28;20761;-76
2022/05/30 01:53:14;;;;;;;4.78;1.75;;;;;;;;;;4952473;28;21339;-74
2022/05/30 01:55:41;;;;;;;3.40;1.70;;;;;;;;;;4936598;28;20516;-75
2022/05/30 01:58:07;;;;;;;4.90;1.70;;;;;;;;;;4937177;28;20432;-76
2022/05/30 02:00:33;;;;;;;4.10;1.98;;;7.70;99.90;;;;;;4924266;28;20437;-75
2022/05/30 02:02:59;;;;;;;6.03;1.90;;;;;;;;;;4936581;28;20436;-76
2022/05/30 02:05:26;;;;;;;6.20;2.00;;;;;;;;;;4938496;28;20441;-75
2022/05/30 02:07:52;;;;;;;5.03;2.08;;;;;;;;;;4920324;28;20444;-75
2022/05/30 02:10:18;;;;;;;5.72;2.20;;;;;;;;;;4948901;28;20494;-75
2022/05/30 02:12:44;;;;;;;4.50;2.10;;;;;;;;;;4947564;28;20434;-75
2022/05/30 02:15:10;;;;;;;8.07;2.47;;;;;;;;;;4949287;28;20478;-75
2022/05/30 02:17:36;;;;;;;6.25;2.60;;;;;;;;;;4927904;28;20515;-75
2022/05/30 02:20:02;;;;;;;5.18;2.47;;;;;;;;;;4947159;28;20439;-75
2022/05/30 02:22:29;;;;;;;5.35;2.42;;;;;;;;;;4952998;28;20490;-75
2022/05/30 02:24:56;;;;;;;5.20;2.72;;;;;;;;;;4935743;29;20540;-75
2022/05/30 02:27:22;;;;;;;5.60;2.35;;;;;;;;;;4949473;28;20432;-75
2022/05/30 02:29:48;;;;;;;6.78;2.78;;;;;;;;;;4921332;28;20800;-75
2022/05/30 02:32:14;;;;;;;6.35;2.60;;;;;;;;;;4952695;28;20816;-75
2022/05/30 02:37:25;;;;;;;6.45;2.35;;;;;;;;;;4941224;28;20775;-75
2022/05/30 02:39:51;;;;;;;5.18;2.45;;;;;;;;;;4950963;28;20439;-75
2022/05/30 02:42:17;;;;;;;5.90;2.53;;;;;;;;;;4932081;28;20427;-75
2022/05/30 02:44:44;;;;;;;8.05;2.63;;;;;;;;;;4936268;28;20439;-74
2022/05/30 02:47:10;;;;;;;6.18;2.47;;;;;;;;;;4957023;28;20588;-74
2022/05/30 02:49:36;;;;;;;5.80;2.63;;;;;;;;;;4960312;28;20428;-74
2022/05/30 02:52:03;;;;;;;5.25;2.78;;;;;;;;;;4937523;28;21302;-75
2022/05/30 02:54:29;;;;;;;5.25;2.28;;;;;;;;;;4933544;28;20428;-74
2022/05/30 02:56:57;;;;;;;9.32;2.50;;;7.00;99.90;;;;;;4951474;28;20431;-75
2022/05/30 02:59:24;;;;;;;5.53;2.40;;;6.90;99.90;;;;;;4940227;28;20429;-75
2022/05/30 03:01:50;;;;;;;5.90;2.50;;;;;;;;;;4965787;28;20447;-75
2022/05/30 03:04:17;;;;;;;5.83;2.50;;;;;;;;;;4935240;28;20794;-75
2022/05/30 03:06:43;;;;;;;6.72;2.25;;;;;;;;;;4953241;28;20519;-75
2022/05/30 03:09:10;;;;;;;5.72;2.40;;;7.10;99.90;;;;;;4947387;28;20433;-75
2022/05/30 03:11:36;;;;;;;5.00;2.40;;;;;;;;;;4951131;28;20441;-75
2022/05/30 03:14:03;;;;;;;5.55;2.13;;;;;;;;;;4952349;28;20438;-74
2022/05/30 03:16:29;;;;;;;9.13;3.00;;;;;;;;;;4922949;28;20776;-75
2022/05/30 03:18:55;;;;;;;6.10;2.38;;;;;;;;;;4920858;28;20438;-75
2022/05/30 03:21:21;;;;;;;6.80;2.53;;;;;;;;;;4951519;28;20823;-75
2022/05/30 03:23:47;;;;;;;5.47;2.45;;;;;;;;;;4937276;28;20938;-76
2022/05/30 03:26:14;;;;;;;4.82;2.55;;;;;;;;;;4956063;28;20490;-76
2022/05/30 03:28:41;;;;;;;7.85;2.78;;;;;;;;;;4938557;28;20437;-75
2022/05/30 03:31:07;;;;;;;9.32;2.78;;;6.90;99.90;;;;;;4952828;28;20553;-75
2022/05/30 03:33:37;;;;;;;7.22;2.55;;;;;;;;;;4933436;28;20675;-75
2022/05/30 03:36:10;;;;;;;7.38;2.58;;;6.90;99.90;;;;;;4953902;28;20431;-75
2022/05/30 03:38:36;;;;;;;5.97;2.70;;;;;;;;;;4930807;29;20440;-75
2022/05/30 03:41:02;;;;;;;5.67;2.60;;;;;;;;;;4924368;28;20820;-74
2022/05/30 03:43:29;;;;;;;7.95;2.70;;;;;;;;;;4955750;28;20428;-75
2022/05/30 03:45:55;;;;;;;8.82;3.00;;;;;;;;;;4923501;28;20424;-75
2022/05/30 03:48:21;;;;;;;8.82;3.08;;;;;;;;;;4956697;28;20463;-75
2022/05/30 03:50:48;;;;;;;8.57;2.70;;;;;;;;;;4957587;28;20428;-75
2022/05/30 03:53:14;;;;;;;6.77;3.03;;;;;;;;;;4939010;28;20424;-75
2022/05/30 03:55:42;;;;;;;7.10;2.80;;;;;;;;;;4935430;28;20420;-75
2022/05/30 03:58:10;;;;;;;7.00;3.60;;;7.30;99.90;;;;;;4950172;28;20428;-75
2022/05/30 04:00:36;;;;;;;6.70;3.13;;;;;;;;;;4953032;28;20499;-75
2022/05/30 04:03:02;;;;;;;6.90;3.30;;;6.90;99.90;;;;;;4955837;28;20482;-75
2022/05/30 04:05:29;;;;;;;8.57;3.40;;;;;;;;;;4939816;28;20876;-74
2022/05/30 04:07:55;;;;;;;7.78;3.15;;;;;;;;;;4956301;28;20435;-74
2022/05/30 04:10:22;;;;;;;9.73;3.40;;;;;;;;;;4938086;28;20440;-76
2022/05/30 04:12:48;;;;;;;8.53;3.60;;;;;;;;;;4950130;28;20428;-76
2022/05/30 04:15:20;;;;;;;8.57;3.35;;;;;;;;;;4931841;28;20433;-76
2022/05/30 04:17:46;;;;;;;8.55;3.50;;;;;;;;;;4935441;29;20818;-76
2022/05/30 04:20:12;;;;;;;7.75;3.78;;;7.40;99.90;;;;;;4946550;28;20511;-76
2022/05/30 04:22:38;;;;;;;8.02;3.67;;;;;;;;;;4939381;28;20568;-75
2022/05/30 04:25:05;;;;;;;7.65;3.90;;;;;;;;;;4947745;28;20868;-75
2022/05/30 04:27:32;;;;;;;7.30;3.67;;;;;;;;;;4934459;28;20945;-75
2022/05/30 04:29:58;;;;;;;8.27;3.40;;;;;;;;;;4957116;28;20523;-75
2022/05/30 04:32:24;;;;;;;8.85;4.00;;;;;;;;;;4943392;28;20792;-75
2022/05/30 04:34:51;;;;;;;10.15;3.95;;;;;;;;;;4949175;28;20493;-75
2022/05/30 04:37:17;;;;;;;6.57;3.42;;;;;;;;;;4940619;28;20420;-75
2022/05/30 04:39:43;;;;;;;9.23;3.72;;;;;;;;;;4925427;28;20430;-76
2022/05/30 04:42:09;;;;;;;8.90;4.20;;;;;;;;;;4937896;28;20427;-75
2022/05/30 04:44:35;;;;;;;7.85;3.92;;;;;;;;;;4936311;28;20963;-75
2022/05/30 04:47:01;;;;;;;9.45;4.18;;;;;;;;;;4943564;28;20410;-75
2022/05/30 04:49:28;;;;;;;11.70;3.90;;;;;;;;;;4952691;28;20510;-75
2022/05/30 04:51:54;;;;;;;11.38;4.15;;;;;;;;;;4929706;28;20832;-76
2022/05/30 04:54:21;;;;;;;8.65;4.20;;;;;;;;;;4944398;29;20444;-75
2022/05/30 04:56:47;;;;;;;8.85;3.70;;;;;;;;;;4953481;28;20471;-75
2022/05/30 04:59:14;;;;;;;7.57;3.78;;;;;;;;;;4953335;28;20428;-75
2022/05/30 05:01:40;;;;;;;7.70;3.75;;;;;;;;;;4954321;28;20428;-76
2022/05/30 05:04:08;;;;;;;7.53;3.50;;;8.50;99.90;;;;;;4944418;28;20450;-75
2022/05/30 05:06:35;;;;;;;9.60;3.40;;;;;;;;;;4939239;28;20436;-75
2022/05/30 05:09:17;;;;;;;8.57;3.10;;;;;;;;;;4937307;28;20440;-75
2022/05/30 05:11:43;;;;;;;7.72;3.30;;;;;;;;;;4939239;28;20439;-75
2022/05/30 05:14:10;;;;;;;6.28;3.20;;;;;;;;;;4937762;28;20445;-75
2022/05/30 05:16:36;;;;;;;6.50;3.00;;;;;;;;;;4957244;28;20527;-75
2022/05/30 05:19:02;;;;;;;5.50;2.85;;;;;;;;;;4918287;28;20455;-75
2022/05/30 05:21:33;;;;;;;6.75;3.00;;;;;;;;;;4938404;28;20451;-75
2022/05/30 05:24:00;;;;;;;7.95;2.75;;;;;;;;;;4961909;28;20433;-75
2022/05/30 05:26:26;;;;;;;5.88;2.80;;;;;;;;;;4923779;29;20433;-75
2022/05/30 05:28:52;;;;;;;5.22;2.78;;;;;;;;;;4946184;28;20432;-74
2022/05/30 05:31:28;;;;;;;5.55;2.70;;;9.20;99.90;;;;;;4934670;29;20965;-75
2022/05/30 05:33:57;;;;;;;6.00;2.88;;;9.30;99.90;;;;;;4937336;28;20619;-74
2022/05/30 05:36:29;;;;;;;7.78;3.20;;;9.30;99.90;;;;;;4939749;28;20464;-74
2022/05/30 05:38:55;;;;;;;6.20;2.90;;;9.50;99.90;;;;;;4931559;28;20491;-75
2022/05/30 05:41:24;;;;;;;7.18;3.00;;;;;;;;;;4951680;28;20438;-75
2022/05/30 05:43:53;;;;;;;4.70;2.38;;;;;;;;;;4953235;28;20427;-74
2022/05/30 05:46:21;;;;;;;5.95;2.50;;;9.50;99.90;;;;;;4952894;28;20438;-74
2022/05/30 05:48:48;;;;;;;5.10;2.42;;;;;;;;;;4935080;28;20427;-74
2022/05/30 05:51:14;;;;;;;7.20;2.90;;;;;;;;;;4945843;28;20508;-75
2022/05/30 05:53:43;;;;;;;4.73;2.53;;;;;;;;;;4950090;28;20432;-74
2022/05/30 05:56:14;;;;;;;5.65;2.25;;;;;;;;;;4937921;28;21119;-75
2022/05/30 05:58:40;;;;;;;6.83;2.60;;;;;;;;;;4929984;28;21001;-75
2022/05/30 06:01:10;;;;;;;5.63;2.40;;;;;;;;;;4955723;28;20416;-74
2022/05/30 06:03:36;;;;;;;5.60;2.53;;;;;;;;;;4937838;28;20919;-75
2022/05/30 06:06:03;;;;;;;8.00;2.08;;;10.00;99.90;;;;;;4955960;28;20451;-73
2022/05/30 06:08:30;;;;;;;6.13;2.10;;;;;;;;;;4952783;28;20428;-76
2022/05/30 06:11:05;;;;;;;3.67;1.70;;;;;;;;;;4954220;28;20428;-74
2022/05/30 06:13:31;;;;;;;5.25;1.80;;;;;;;;;;4951582;28;20957;-73
2022/05/30 06:15:57;;;;;;;5.57;1.80;;;;;;;;;;4948749;28;20925;-73
2022/05/30 06:18:23;;;;;;;5.18;1.63;;;;;;;;;;4936006;28;20998;-73
2022/05/30 06:20:49;;;;;;;3.90;1.80;;;;;;;;;;4953660;28;20632;-73
2022/05/30 06:23:15;;;;;;;3.95;1.85;;;;;;;;;;4922662;28;20944;-73
2022/05/30 06:25:42;;;;;;;3.00;1.40;;;;;;;;;;4929213;28;20430;-73
2022/05/30 06:28:08;;;;;;;4.18;1.70;;;10.40;99.90;;;;;;4937687;28;20436;-74
2022/05/30 06:30:36;;;;;;;2.28;1.20;;;10.90;99.90;;;;;;4935607;29;20429;-74
2022/05/30 06:33:02;;;;;;;2.90;1.40;;;;;;;;;;4952017;28;20823;-73
2022/05/30 06:35:28;;;;;;;2.55;1.35;;;;;;;;;;4935091;29;20429;-73
2022/05/30 06:37:54;;;;;;;2.53;1.30;;;;;;;;;;4947688;28;21724;-72
2022/05/30 06:40:20;;;;;;;3.60;1.20;;;;;;;;;;4950224;28;20423;-73
2022/05/30 06:42:46;;;;;;;2.10;1.00;;;11.40;99.90;;;;;;4933122;28;20476;-73
2022/05/30 06:45:12;;;;;;;2.77;1.17;;;;;;;;;;4947038;28;20436;-73
2022/05/30 06:47:39;;;;;;;3.08;1.10;;;;;;;;;;4935640;28;20428;-73
2022/05/30 06:50:05;;;;;;;3.85;1.10;;;;;;;;;;4955661;28;20427;-73
2022/05/30 06:52:31;;;;;;;3.33;1.10;;;;;;;;;;4937626;28;20787;-73
2022/05/30 06:54:57;;;;;;;3.03;1.10;;;;;;;;;;4937763;28;20485;-72
2022/05/30 07:00:08;;;;;;;2.05;1.00;;;;;;;;;;4937977;28;20432;-72
2022/05/30 07:02:34;;;;;;;3.53;1.17;;;;;;;;;;4951932;28;20426;-73
2022/05/30 07:05:00;;;;;;;3.00;0.98;;;;;;;;;;4951319;28;20467;-73
2022/05/30 07:07:26;;;;;;;3.13;1.02;;;;;;;;;;4950666;28;20897;-73
2022/05/30 07:09:52;;;;;;;3.80;1.00;;;;;;;;;;4957415;28;20436;-73
2022/05/30 07:12:19;;;;;;;1.92;0.88;;;;;;;;;;4954089;28;20522;-73
2022/05/30 07:14:45;;;;;;;2.40;0.88;;;;;;;;;;4946869;28;20827;-73
2022/05/30 07:17:11;;;;;;;6.22;1.20;;;;;;;;;;4938677;28;20449;-73
2022/05/30 07:19:37;;;;;;;4.25;1.10;;;;;;;;;;4940400;28;20499;-73
2022/05/30 07:22:04;;;;;;;3.47;1.10;;;;;;;;;;4939701;28;20491;-73
2022/05/30 07:24:31;;;;;;;3.13;0.93;;;;;;;;;;4937895;28;20440;-73
2022/05/30 07:26:57;;;;;;;3.92;1.10;;;;;;;;;;4956615;28;20520;-73
2022/05/30 07:29:26;;;;;;;2.80;0.90;;;;;;;;;;4940266;28;20435;-73
2022/05/30 07:31:56;;;;;;;1.80;0.60;;;;;;;;;;4934619;28;20439;-73
2022/05/30 07:34:22;;;;;;;1.83;0.80;;;;;;;;;;4931441;28;20428;-73
2022/05/30 07:36:48;;;;;;;2.20;0.70;;;;;;;;;;4952268;28;20429;-73
2022/05/30 07:39:14;;;;;;;2.10;0.90;;;;;;;;;;4955657;28;20438;-73
2022/05/30 07:41:41;;;;;;;2.85;0.98;;;;;;;;;;4922020;29;20441;-73
2022/05/30 07:44:07;;;;;;;4.47;0.98;;;;;;;;;;4942922;28;20436;-73
2022/05/30 07:46:33;;;;;;;3.03;0.80;;;;;;;;;;4942499;28;20463;-73
2022/05/30 07:48:59;;;;;;;2.20;0.85;;;;;;;;;;4949390;28;20439;-72
2022/05/30 07:51:25;;;;;;;1.75;0.85;;;;;;;;;;4916707;28;20842;-73
2022/05/30 07:53:51;;;;;;;2.47;0.90;;;11.60;99.90;;;;;;4922636;28;20424;-73
2022/05/30 07:56:17;;;;;;;3.13;0.87;;;;;;;;;;4953162;28;20946;-73
2022/05/30 07:58:44;;;;;;;3.93;1.10;;;;;;;;;;4937975;28;20433;-74
2022/05/30 08:01:15;;;;;;;2.70;0.90;;;;;;;;;;4936962;28;20428;-72
2022/05/30 08:03:41;;;;;;;2.45;0.70;;;12.50;99.90;;;;;;4954824;28;20439;-73
2022/05/30 08:06:12;;;;;;;2.70;0.80;;;12.60;99.90;;;;;;4922848;28;20431;-73
2022/05/30 08:08:38;;;;;;;3.20;1.05;;;;;;;;;;4939341;28;20837;-73
2022/05/30 08:11:04;;;;;;;3.72;1.00;;;;;;;;;;4945826;28;20505;-72
2022/05/30 08:13:31;;;;;;;2.13;0.90;;;;;;;;;;4944559;28;20584;-73
2022/05/30 08:15:57;;;;;;;3.75;0.93;;;;;;;;;;4946837;28;20427;-72
2022/05/30 08:18:23;;;;;;;3.20;0.95;;;;;;;;;;4938782;28;20492;-72
2022/05/30 08:20:49;;;;;;;1.88;1.05;;;;;;;;;;4933635;29;20542;-73
2022/05/30 08:23:17;;;;;;;2.40;0.88;;;;;;;;;;4937116;28;20482;-73
2022/05/30 08:25:43;;;;;;;1.95;0.77;;;13.90;99.90;;;;;;4928479;29;20428;-73
2022/05/30 08:28:09;;;;;;;3.53;0.93;;;;;;;;;;4955069;28;20416;-73
2022/05/30 08:30:35;;;;;;;4.07;1.02;;;;;;;;;;4948359;28;20444;-73
2022/05/30 08:33:02;;;;;;;3.05;1.02;;;;;;;;;;4934352;29;20453;-72
2022/05/30 08:35:28;;;;;;;2.33;1.08;;;;;;;;;;4929626;29;20998;-72
2022/05/30 08:37:57;;;;;;;5.15;1.92;;;12.90;99.90;;;;;;4930806;28;20439;-72
2022/05/30 08:43:37;;;;;;;5.85;2.10;;;11.90;99.90;;;;;;4947868;28;20446;-74
2022/05/30 08:46:34;;;;;;;5.35;2.20;;;11.50;99.90;;;;;;4948630;28;20941;-75
2022/05/30 08:49:00;;;;;;;6.00;2.25;;;;;;;;;;4945492;28;20456;-74
2022/05/30 08:51:39;;;;;;;5.05;1.90;;;11.50;99.90;;;;;;4941786;28;20517;-74
2022/05/30 08:54:24;;;;;;;5.57;1.90;;;;;;;;;;4939120;28;20413;-76
2022/05/30 08:56:53;;;;;;;5.00;2.38;;;11.40;99.90;;;;;;4931530;28;20944;-74
2022/05/30 08:59:38;;;;;;;5.18;1.85;;;11.40;99.90;;;;;;4941358;29;20422;-75
2022/05/30 09:02:23;;;;;;;4.28;1.40;;;11.60;99.90;;;;;;4933747;28;20545;-74
2022/05/30 09:04:53;;;;;;;3.70;1.75;;;;;;;;;;4931386;29;20519;-74
2022/05/30 09:07:26;;;;;;;5.65;1.33;;;11.90;99.90;;;;;;4958649;28;20990;-74
2022/05/30 09:09:58;;;;;;;3.95;1.50;;;;;;;;;;4945009;28;20830;-74
2022/05/30 09:12:45;;;;;;;2.50;1.10;;;;;;;;;;4944311;28;20936;-74
2022/05/30 09:15:26;;;;;;;3.92;1.17;;;12.10;99.90;;;;;;4907063;28;20502;-75
2022/05/30 09:17:55;;;;;;;3.67;1.55;;;;;;;;;;4950014;28;20511;-74
2022/05/30 09:20:22;;;;;;;3.45;1.30;;;;;;;;;;4950488;28;20446;-74
2022/05/30 09:22:48;;;;;;;3.63;1.70;;;;;;;;;;4942708;28;20808;-74
2022/05/30 09:28:03;;;;;;;5.33;1.60;;;;;;;;;;4953623;28;20945;-74
2022/05/30 09:30:51;;;;;;;2.13;1.40;;;11.60;99.90;;;;;;4930361;28;20432;-73
2022/05/30 09:33:45;;;;;;;3.03;1.38;;;12.00;99.90;;;;;;4948942;28;20439;-74
2022/05/30 09:36:14;;;;;;;3.80;1.40;;;;;;;;;;4949204;28;20424;-73
2022/05/30 09:38:47;;;;;;;2.10;1.10;;;11.80;99.90;;;;;;4956952;28;20808;-73
2022/05/30 09:41:20;;;;;;;2.88;1.20;;;12.00;99.90;;;;;;4942046;28;20479;-73
2022/05/30 09:43:50;;;;;;;2.70;1.10;;;;;;;;;;4940267;28;20923;-73
2022/05/30 09:46:16;;;;;;;3.00;1.42;;;;;;;;;;4952866;28;20431;-73
2022/05/30 09:49:04;;;;;;;4.30;1.10;;;11.80;99.90;;;;;;4956576;28;20511;-73
2022/05/30 09:51:31;;;;;;;4.75;1.40;;;;;;;;;;4940474;28;20433;-73
2022/05/30 09:53:57;;;;;;;2.67;1.08;;;;;;;;;;4937697;28;20962;-73
2022/05/30 09:56:23;;;;;;;2.85;1.10;;;;;;;;;;4949224;28;20568;-73
2022/05/30 09:59:00;;;;;;;2.50;1.00;;;;;;;;;;4936728;28;20898;-74
2022/05/30 10:01:27;;;;;;;2.70;1.10;;;;;;;;;;4937208;28;20428;-73
2022/05/30 10:03:59;;;;;;;1.88;1.10;;;;;;;;;;4950113;28;20523;-73
2022/05/30 10:06:27;;;;;;;5.15;1.17;;;;;;;;;;4941679;28;20943;-73
2022/05/30 10:09:13;;;;;;;2.60;1.00;;;12.50;99.90;;;;;;4928486;28;20422;-73
2022/05/30 10:11:40;;;;;;;3.92;1.15;;;;;;;;;;4923750;28;21092;-73
2022/05/30 10:14:24;;;;;;;2.03;1.00;;;13.00;99.90;;;;;;4921354;28;21010;-74
2022/05/30 10:16:53;;;;;;;2.60;1.10;;;12.90;99.90;;;;;;4923046;28;20877;-73
2022/05/30 10:19:28;;;;;;;2.27;1.07;;;;;;;;;;4933112;28;20517;-73
2022/05/30 10:30:44;;;;;;;2.05;1.10;;;;;;;;;;4935318;29;20504;-72
2022/05/30 10:33:16;;;;;;;3.63;1.27;;;;;;;;;;4931855;29;20870;-72
2022/05/30 10:35:46;;;;;;;4.00;1.20;;;;;;;;;;4928700;29;20954;-72
2022/05/30 10:38:25;;;;;;;2.85;0.90;;;11.50;99.90;;;;;;4935387;29;20434;-72
2022/05/30 10:40:54;;;;;;;4.43;1.30;;;;;;;;;;4931274;28;20426;-72
2022/05/30 10:43:30;;;;;;;3.08;1.05;;;;;;;;;;4933009;29;20718;-72
2022/05/30 10:46:12;;;;;;;2.13;0.90;;;11.50;99.90;;;;;;4931428;28;20592;-71
2022/05/30 10:48:39;;;;;;;2.80;1.10;;;;;;;;;;4939612;28;20809;-72
2022/05/30 10:51:13;;;;;;;3.55;1.10;;;;;;;;;;4931035;28;20847;-71
2022/05/30 10:54:02;;;;;;;3.42;1.25;;;;;;;;;;4935925;28;20425;-71
2022/05/30 10:56:38;;;;;;;2.42;1.25;;;;;;;;;;4916215;28;20428;-72
2022/05/30 10:59:21;;;;;;;4.68;1.20;;;11.80;99.90;;;;;;4936935;29;20418;-73
2022/05/30 11:01:47;;;;;;;2.47;1.30;;;;;;;;;;4938208;29;20548;-73
2022/05/30 11:04:19;;;;;;;5.10;1.47;;;;;;;;;;4943113;28;20435;-73
2022/05/30 11:06:47;;;;;;;4.25;1.20;;;12.60;99.90;;;;;;4955395;28;20439;-72
2022/05/30 11:09:27;;;;;;;2.70;1.55;;;;;;;;;;4951982;28;20431;-73
2022/05/30 11:11:53;;;;;;;2.90;1.60;;;;;;;;;;4943448;28;20523;-72
2022/05/30 11:14:34;;;;;;;4.38;1.40;;;;;;;;;;4957760;28;20522;-72
2022/05/30 11:17:06;;;;;;;3.75;1.40;;;13.50;99.90;;;;;;4943765;28;20429;-72
2022/05/30 11:20:11;;;;;;;3.40;1.40;;;;;;;;;;4935073;28;20436;-72
2022/05/30 11:22:38;;;;;;;4.07;1.48;;;14.10;99.90;;;;;;4879834;29;20452;-73
2022/05/30 11:25:12;;;;;;;2.63;1.30;;;13.90;99.90;;;;;;4868016;29;20452;-72
2022/05/30 11:27:56;;;;;;;3.77;1.50;;;;;;;;;;4915020;28;20549;-73
2022/05/30 11:30:47;;;;;;;3.58;1.30;;;13.60;99.90;;;;;;4947906;28;20431;-72
2022/05/30 11:33:30;;;;;;;4.18;1.42;;;13.30;99.90;;;;;;4941079;28;20854;-73
2022/05/30 11:36:18;;;;;;;2.70;1.33;;;;;;;;;;4949894;28;20451;-72
2022/05/30 11:38:50;;;;;;;3.80;1.50;;;;;;;;;;4946968;28;20526;-72
2022/05/30 11:41:29;;;;;;;3.47;1.50;;;;;;;;;;4952107;28;20428;-72
2022/05/30 11:44:07;;;;;;;3.00;1.38;;;;;;;;;;4952202;28;20475;-73
2022/05/30 11:47:10;;;;;;;3.05;1.40;;;14.40;99.90;;;;;;4949738;28;20426;-71
2022/05/30 11:50:02;;;;;;;3.65;1.40;;;13.90;99.90;;;;;;4963790;28;20426;-72
2022/05/30 11:52:34;;;;;;;3.85;1.40;;;;;;;;;;4918097;28;20848;-72
2022/05/30 11:55:20;;;;;;;2.30;1.20;;;14.10;99.90;;;;;;4967116;28;20769;-72
2022/05/30 11:57:47;;;;;;;2.75;1.48;;;14.30;99.90;;;;;;4947261;28;20506;-73
2022/05/30 12:00:29;;;;;;;3.08;1.30;;;14.20;99.90;;;;;;4952267;28;20564;-73
2022/05/30 12:02:57;;;;;;;3.08;1.50;;;14.70;99.90;;;;;;4939207;28;20528;-73
2022/05/30 12:05:29;;;;;;;3.72;1.70;;;;;;;;;;4962807;28;20442;-73
2022/05/30 12:08:22;;;;;;;3.33;1.70;;;14.90;99.90;;;;;;4949517;28;20440;-73
2022/05/30 12:10:54;;;;;;;4.00;1.90;;;;;;;;;;4946688;28;20429;-72
2022/05/30 12:13:45;;;;;;;3.95;1.50;;;14.90;99.90;;;;;;4952591;28;20798;-72
2022/05/30 12:16:11;;;;;;;4.23;1.70;;;;;;;;;;4946882;28;20429;-72
2022/05/30 12:24:30;;;;;;;4.30;1.75;;;;;;;;;;4949821;28;20960;-73
2022/05/30 12:27:12;;;;;;;3.35;1.30;;;14.70;99.90;;;;;;4955502;28;20431;-73
2022/05/30 12:29:38;;;;;;;2.67;1.60;;;14.40;99.90;;;;;;4956152;28;20498;-73
2022/05/30 12:32:10;;;;;;;4.75;1.67;;;;;;;;;;4946505;28;20448;-73
2022/05/30 12:35:06;;;;;;;3.95;1.70;;;13.60;99.90;;;;;;4952241;28;20791;-73
2022/05/30 12:37:43;;;;;;;3.38;1.60;;;;;;;;;;4901632;28;20453;-73
2022/05/30 12:40:26;;;;;;;3.72;1.58;;;13.90;99.90;;;;;;4937637;28;20468;-73
2022/05/30 12:43:23;;;;;;;3.90;1.55;;;14.20;99.90;;;;;;4937466;28;20807;-72
2022/05/30 12:46:07;;;;;;;4.35;1.90;;;;;;;;;;4927698;28;20448;-73
2022/05/30 12:48:35;;;;;;;7.55;1.90;;;;;;;;;;4953344;28;20772;-73
2022/05/30 12:51:24;;;;;;;4.30;1.70;;;14.40;99.90;;;;;;4933590;28;20461;-73
2022/05/30 12:54:00;;;;;;;3.58;1.20;;;;;;;;;;4948158;28;20435;-73
2022/05/30 12:56:39;;;;;;;3.47;1.30;;;14.00;99.90;;;;;;4945645;28;20437;-73
2022/05/30 12:59:21;;;;;;;3.38;1.27;;;;;;;;;;4942195;28;20900;-73
2022/05/30 13:01:48;;;;;;;2.78;1.20;;;;;;;;;;4955584;28;20928;-73
2022/05/30 13:04:26;;;;;;;3.40;1.08;;;13.70;99.90;;;;;;4932870;28;20445;-74
2022/05/30 13:06:58;;;;;;;6.10;1.20;;;;;;;;;;4955731;28;20439;-74
2022/05/30 13:09:38;;;;;;;3.37;1.30;;;13.90;99.90;;;;;;4938246;28;20492;-73
2022/05/30 13:12:07;;;;;;;3.72;1.52;;;;;;;;;;4956259;28;20432;-73
2022/05/30 13:14:59;;;;;;;3.53;1.50;;;13.90;99.90;;;;;;4946616;28;20481;-74
2022/05/30 13:17:57;;;;;;;3.67;1.40;;;13.90;99.90;;;;;;4942149;28;20411;-73
2022/05/30 13:20:39;;;;;;;5.13;1.80;;;13.90;99.90;;;;;;4962312;28;21006;-73
2022/05/30 13:23:05;;;;;;;4.63;1.63;;;;;;;;;;4954789;28;20497;-73
2022/05/30 13:25:31;;;;;;;3.72;1.60;;;;;;;;;;4968627;28;20418;-73
2022/05/30 13:28:09;;;;;;;5.50;1.83;;;;;;;;;;4952808;28;20935;-73
2022/05/30 13:30:37;;;;;;;4.05;1.75;;;;;;;;;;4944053;28;20786;-73
2022/05/30 13:33:11;;;;;;;5.15;1.75;;;;;;;;;;4949215;28;20436;-73
2022/05/30 13:35:37;;;;;;;4.88;2.25;;;;;;;;;;4955637;28;20483;-73
2022/05/30 13:38:08;;;;;;;4.80;2.03;;;;;;;;;;4926704;28;20428;-73
2022/05/30 13:40:34;;;;;;;4.55;2.10;;;;;;;;;;4955882;28;20415;-73
2022/05/30 13:43:03;;;;;;;6.75;2.15;;;13.80;99.90;;;;;;4954531;28;20439;-74
2022/05/30 13:45:31;;;;;;;4.70;2.22;;;;;;;;;;4954046;28;20440;-74
2022/05/30 13:48:02;;;;;;;5.65;1.90;;;13.70;99.90;;;;;;4960426;28;20426;-74
2022/05/30 13:50:41;;;;;;;4.53;1.95;;;;;;;;;;4937137;29;20433;-73
2022/05/30 13:53:07;;;;;;;4.95;1.95;;;13.60;99.90;;;;;;4947746;28;20439;-74
2022/05/30 13:55:33;;;;;;;4.88;2.17;;;13.80;99.90;;;;;;4934446;29;20426;-73
2022/05/30 13:58:02;;;;;;;4.30;2.10;;;;;;;;;;4934342;28;20457;-73
2022/05/30 14:00:31;;;;;;;4.20;2.33;;;;;;;;;;4945277;28;20439;-74
2022/05/30 14:02:57;;;;;;;4.68;2.10;;;;;;;;;;4931047;29;20731;-74
2022/05/30 14:05:31;;;;;;;6.30;2.40;;;;;;;;;;4948836;28;20484;-75
2022/05/30 14:07:59;;;;;;;5.80;2.20;;;;;;;;;;4931449;29;20414;-74
2022/05/30 14:10:27;;;;;;;4.38;1.88;;;;;;;;;;4946237;28;20447;-74
2022/05/30 14:12:54;;;;;;;5.07;2.40;;;;;;;;;;4911891;28;20948;-75
2022/05/30 14:15:26;;;;;;;4.18;2.40;;;12.80;99.90;;;;;;4949843;28;20451;-74
2022/05/30 14:17:54;;;;;;;4.97;2.42;;;;;;;;;;4955116;28;20409;-74
2022/05/30 14:20:29;;;;;;;4.13;2.30;;;;;;;;;;4948153;28;20490;-74
2022/05/30 14:22:57;;;;;;;6.20;3.30;;;12.80;99.90;;;;;;4946451;28;20872;-74
2022/05/30 14:25:34;;;;;;;5.93;2.87;;;;;;;;;;4974301;28;20421;-75
2022/05/30 14:28:06;;;;;;;6.43;2.50;;;12.20;99.90;;;;;;4954711;28;20470;-74
2022/05/30 14:30:33;;;;;;;5.88;2.75;;;;;;;;;;4956209;28;20432;-74
2022/05/30 14:33:33;;;;;;;4.90;2.65;;;11.90;99.90;;;;;;4954779;28;20432;-74
2022/05/30 14:36:27;;;;;;;5.65;2.47;;;12.40;99.90;;;;;;4880334;28;20414;-75
2022/05/30 14:39:00;;;;;;;5.20;2.80;;;12.20;99.90;;;;;;4953376;28;20499;-74
2022/05/30 14:41:32;;;;;;;4.13;2.67;;;;;;;;;;4950863;28;20457;-74
2022/05/30 14:43:58;;;;;;;4.45;2.80;;;;;;;;;;4942909;29;20421;-74
2022/05/30 14:46:43;;;;;;;5.15;2.60;;;12.10;99.90;;;;;;4949944;28;20628;-75
2022/05/30 14:49:18;;;;;;;4.47;2.60;;;;;;;;;;4961001;28;20510;-74
2022/05/30 14:51:52;;;;;;;6.13;2.90;;;12.30;99.90;;;;;;4933260;28;20432;-74
2022/05/30 14:54:37;;;;;;;5.80;2.30;;;;;;;;;;4931510;29;20414;-74
2022/05/30 14:57:14;;;;;;;4.40;2.50;;;12.60;99.90;;;;;;4949896;28;20423;-74
2022/05/30 14:59:42;;;;;;;4.40;2.33;;;;;;;;;;4937937;28;20432;-74